Tobin, Indiana
Current Conditions -  °F | °C
As of 9:15 PM on Monday 22 Dec 2014 (Local Time) from KHNB Reporting Station
Overcast Overcast  
Wind Chill: 50°   Ceiling: 1300
Heat Index: 50°   Visibility: 10mi
Dew Point: 46°   Wind: 8mph
Humidity: 87%   Direction: 160°SSE
Pressure: 29.66"   Gusts: NA
Location:  37.9466°N, 86.5893°W
Report Text: KHNB 230315Z AUTO 16007KT 10SM OVC013 10/08 A2966 RMK AO1
Loading
Personal Weather Stations






























Interactive Weather Map New forecast layout! Learn more

10-Day Weather Forecast

Advertisements
Track Severe Weather on mobile